Portada
METAR-TAF:

METAR-TAF

Aeropuertos :

Shanghái-Pudong, China

Aeropuerto Internacional de Shanghái-Pudong

latitud: 31-07N, longitud: 121-46E, altitud: 4 m

Observación

El informe se hizo hace 30 minutos, a las 12:30 UTC
Viento 2 kt con dirección variable
Temperatura 11°C
Humedad 71%
Presión 1023 hPa
Visibilidad 10 km o más
sin nubes por debajo de 1500 m y sin presencia de cumulonimbus.

METAR: ZSPD 261230Z VRB01MPS CAVOK 11/06 Q1023 NOSIG

Hora: 21:00 (13:00 UTC)

Pronóstico

El informe se hizo hace 3 horas y 31 minutos, a las 09:29 UTC
Pronóstico válido del 26 a las 12 UTC al 27 a las 12 UTC
Viento 10 kt del oeste-noroeste
Visibilidad: 5000 m
Nubes dispersas a una altura de 2000 ft
neblina
Evolucionando progresivamente
del 27 a las 02 UTC al 27 a las 04 UTC
Viento 8 kt del oeste-suroeste

TAF: ZSPD 260929Z 2612/2712 30005MPS 5000 BR SCT020 TX20/2706Z TN09/2621Z BECMG 2702/2704 25004MPS

Observaciones y pronósticos meteorológicos de más de 4000 aeropuertos (mensajes METAR y TAF).

Los puntos amarillos y rojos representan las estaciones disponibles.

Ponga el ratón en el punto deseado para ver el nombre de la estación.

Haga clic para ver las observaciones y los pronósticos meteorológicos.

Para cambiar el mapa : haga clic en los botones verdes con una cruz de color negro para hacer un zoom, en el botón verde con un guión para alejar o en las flechas verdes para mapas adyacentes.


METAR-TAF: